createdAt,value
2023-03-22T01:24:31.592Z,10.30
2023-03-22T01:26:58.870Z,10.30
2023-03-22T01:32:06.854Z,10.30
2023-03-22T01:34:34.004Z,10.30
2023-03-22T01:37:01.172Z,10.30
2023-03-22T01:39:28.103Z,10.20
2023-03-22T01:41:55.053Z,10.30
2023-03-22T01:44:26.177Z,10.20
2023-03-22T01:46:53.185Z,10.20
2023-03-22T01:49:26.498Z,10.20
2023-03-22T01:51:57.225Z,10.20
2023-03-22T01:54:40.721Z,10.20
2023-03-22T01:57:07.647Z,10.20
2023-03-22T01:59:41.083Z,10.20
2023-03-22T02:02:18.921Z,10.20
2023-03-22T02:04:50.982Z,10.20
2023-03-22T02:07:25.974Z,10.20
2023-03-22T02:09:56.783Z,10.20
2023-03-22T02:12:38.522Z,10.20
2023-03-22T02:15:15.994Z,10.10
2023-03-22T02:18:11.523Z,10.10
2023-03-22T02:21:06.502Z,10.10
2023-03-22T02:23:51.963Z,10.10
2023-03-22T02:26:39.281Z,10.10
2023-03-22T02:29:42.042Z,10.10
2023-03-22T02:32:33.665Z,10.10
2023-03-22T02:35:12.552Z,10.10
2023-03-22T02:38:20.535Z,10.10
2023-03-22T02:41:08.592Z,10.10
2023-03-22T02:43:51.769Z,10.10
2023-03-22T02:46:30.938Z,10.10
2023-03-22T02:49:17.454Z,10.10
2023-03-22T02:51:50.266Z,10.20
2023-03-22T02:54:33.516Z,10.20
2023-03-22T02:57:07.107Z,10.20
2023-03-22T02:59:38.400Z,10.20
2023-03-22T03:02:07.271Z,10.30
2023-03-22T03:04:40.058Z,10.30
2023-03-22T03:07:09.651Z,10.30
2023-03-22T03:09:39.241Z,10.30
2023-03-22T03:12:08.148Z,10.30
2023-03-22T03:14:35.118Z,10.30
2023-03-22T03:17:17.121Z,10.40
2023-03-22T03:20:01.484Z,10.30
2023-03-22T03:22:34.200Z,10.30
2023-03-22T03:25:07.337Z,10.30
2023-03-22T03:27:44.466Z,10.30
2023-03-22T03:30:17.384Z,10.30
2023-03-22T03:32:49.985Z,10.30
2023-03-22T03:35:32.605Z,10.40
2023-03-22T03:38:06.205Z,10.30
2023-03-22T03:40:42.344Z,10.40
2023-03-22T03:43:13.362Z,10.30
2023-03-22T03:45:43.441Z,10.30
2023-03-22T03:48:21.407Z,10.30
2023-03-22T03:50:51.950Z,10.30
2023-03-22T03:53:18.842Z,10.30
2023-03-22T03:58:26.994Z,10.30
2023-03-22T04:03:37.838Z,10.30
2023-03-22T04:06:04.989Z,10.30
2023-03-22T04:08:32.024Z,10.30
2023-03-22T04:10:58.979Z,10.30
2023-03-22T04:16:05.896Z,10.30
2023-03-22T04:18:32.824Z,10.30
2023-03-22T04:20:59.810Z,10.40
2023-03-22T04:23:26.846Z,10.30
2023-03-22T04:25:54.677Z,10.30
2023-03-22T04:28:21.734Z,10.30
2023-03-22T04:30:51.027Z,10.30
2023-03-22T04:33:18.996Z,10.30
2023-03-22T04:35:46.517Z,10.30
2023-03-22T04:38:14.694Z,10.40
2023-03-22T04:40:46.521Z,10.30
2023-03-22T04:43:14.192Z,10.30
2023-03-22T04:45:42.173Z,10.30
2023-03-22T04:48:10.629Z,10.30
2023-03-22T04:50:40.200Z,10.30
2023-03-22T04:53:08.300Z,10.30
2023-03-22T04:55:35.570Z,10.40
2023-03-22T04:58:02.570Z,10.40
2023-03-22T05:00:30.326Z,10.40
2023-03-22T05:02:58.521Z,10.40
2023-03-22T05:05:25.744Z,10.50
2023-03-22T05:07:52.727Z,10.40
2023-03-22T05:10:19.710Z,10.40
2023-03-22T05:12:46.851Z,10.40
2023-03-22T05:15:14.361Z,10.40
2023-03-22T05:17:41.302Z,10.50
2023-03-22T05:20:10.315Z,10.50
2023-03-22T05:22:40.973Z,10.50
2023-03-22T05:25:10.166Z,10.50
2023-03-22T05:27:39.126Z,10.50
2023-03-22T05:30:07.485Z,10.60
2023-03-22T05:32:37.510Z,10.50
2023-03-22T05:35:05.140Z,10.60
2023-03-22T05:37:32.239Z,10.50
2023-03-22T05:39:59.196Z,10.60
2023-03-22T05:42:26.789Z,10.60
2023-03-22T05:44:53.718Z,10.50
2023-03-22T05:47:20.990Z,10.50
2023-03-22T05:49:48.206Z,10.50
2023-03-22T05:52:15.384Z,10.50
2023-03-22T05:54:42.430Z,10.60
2023-03-22T05:57:09.415Z,10.60
2023-03-22T05:59:36.506Z,10.50
2023-03-22T06:02:03.503Z,10.60
2023-03-22T06:04:30.514Z,10.60
2023-03-22T06:06:57.499Z,10.60
2023-03-22T06:09:24.500Z,10.60
2023-03-22T06:11:51.454Z,10.60
2023-03-22T06:14:18.413Z,10.60
2023-03-22T06:16:45.378Z,10.60
2023-03-22T06:19:12.332Z,10.60
2023-03-22T06:21:39.329Z,10.60
2023-03-22T06:24:06.451Z,10.60
2023-03-22T06:26:33.413Z,10.60
2023-03-22T06:29:00.376Z,10.60
2023-03-22T06:31:27.308Z,10.70
2023-03-22T06:33:55.942Z,10.70
2023-03-22T06:36:22.966Z,10.80
2023-03-22T06:38:49.889Z,10.70
2023-03-22T06:41:16.804Z,10.80
2023-03-22T06:43:43.797Z,10.80
2023-03-22T06:46:10.875Z,10.80
2023-03-22T06:48:37.904Z,10.80
2023-03-22T06:51:05.420Z,10.80
2023-03-22T06:53:32.470Z,10.80
2023-03-22T06:56:01.125Z,10.90
2023-03-22T06:58:28.162Z,10.90
2023-03-22T07:00:58.469Z,11.00
2023-03-22T07:03:25.618Z,11.10
2023-03-22T07:05:52.691Z,11.10
2023-03-22T07:08:19.705Z,11.20
2023-03-22T07:10:51.056Z,11.20
2023-03-22T07:13:18.098Z,11.30
2023-03-22T07:15:45.064Z,11.50
2023-03-22T07:18:12.626Z,11.50
2023-03-22T07:20:41.324Z,11.50
2023-03-22T07:23:10.567Z,11.50
2023-03-22T07:25:37.624Z,11.50
2023-03-22T07:28:06.987Z,11.40
2023-03-22T07:30:37.596Z,11.40
2023-03-22T07:33:06.705Z,11.40
2023-03-22T07:35:33.855Z,11.40
2023-03-22T07:38:01.250Z,11.40
2023-03-22T07:40:28.255Z,11.40
2023-03-22T07:42:55.977Z,11.40
2023-03-22T07:45:23.760Z,11.40
2023-03-22T07:47:50.939Z,11.40
2023-03-22T07:50:18.519Z,11.40
2023-03-22T07:52:45.989Z,11.40
2023-03-22T07:55:14.773Z,11.40
2023-03-22T07:57:41.864Z,11.40
2023-03-22T08:00:10.777Z,11.40
2023-03-22T08:02:38.863Z,11.40
2023-03-22T08:05:07.242Z,11.50
2023-03-22T08:07:34.271Z,11.60
2023-03-22T08:10:01.394Z,11.70
2023-03-22T08:12:28.446Z,11.90
2023-03-22T08:14:55.717Z,12.10
2023-03-22T08:17:22.744Z,12.20
2023-03-22T08:19:50.179Z,12.20
2023-03-22T08:22:17.160Z,12.10
2023-03-22T08:24:44.123Z,12.00
2023-03-22T08:27:12.251Z,12.00
2023-03-22T08:29:39.263Z,11.90
2023-03-22T08:32:07.260Z,12.00
2023-03-22T08:34:38.197Z,12.00
2023-03-22T08:37:06.434Z,12.00
2023-03-22T08:39:33.693Z,12.10
2023-03-22T08:42:00.875Z,12.10
2023-03-22T08:44:27.858Z,12.10
2023-03-22T08:46:55.272Z,12.20
2023-03-22T08:49:22.467Z,12.30
2023-03-22T08:51:49.443Z,12.30
2023-03-22T08:54:16.718Z,12.30
2023-03-22T08:56:43.649Z,12.20
2023-03-22T08:59:10.895Z,12.30
2023-03-22T09:01:38.145Z,12.40
2023-03-22T09:04:05.868Z,12.50
2023-03-22T09:06:34.134Z,12.60
2023-03-22T09:09:01.150Z,12.60
2023-03-22T09:11:28.391Z,12.60
2023-03-22T09:13:55.581Z,12.60
2023-03-22T09:16:22.754Z,12.60
2023-03-22T09:18:49.831Z,12.50
2023-03-22T09:21:17.058Z,12.50
2023-03-22T09:23:47.759Z,12.40
2023-03-22T09:26:15.202Z,12.40
2023-03-22T09:28:42.313Z,12.30
2023-03-22T09:31:11.059Z,12.30
2023-03-22T09:33:39.014Z,12.30
2023-03-22T09:36:06.640Z,12.30
2023-03-22T09:38:35.508Z,12.40
2023-03-22T09:41:08.789Z,12.30
2023-03-22T09:43:48.063Z,12.30
2023-03-22T09:46:19.169Z,12.40
2023-03-22T09:48:49.322Z,12.40
2023-03-22T09:51:38.498Z,12.40
2023-03-22T09:54:20.256Z,12.40
2023-03-22T09:56:58.981Z,12.30
2023-03-22T09:59:44.183Z,12.20
2023-03-22T10:02:46.079Z,12.20
2023-03-22T10:05:22.088Z,12.10
2023-03-22T10:07:53.645Z,12.00
2023-03-22T10:10:24.386Z,12.00
2023-03-22T10:12:51.346Z,11.80
2023-03-22T10:15:42.514Z,11.70
2023-03-22T10:18:13.678Z,11.60
2023-03-22T10:21:02.852Z,11.50
2023-03-22T10:23:56.031Z,11.40
2023-03-22T10:26:39.606Z,11.40
2023-03-22T10:29:35.310Z,11.30
2023-03-22T10:32:13.800Z,11.30
2023-03-22T10:34:41.288Z,11.30
2023-03-22T10:37:13.712Z,11.20
2023-03-22T10:39:49.848Z,11.20
2023-03-22T10:42:31.253Z,11.20
2023-03-22T10:45:02.970Z,11.10
2023-03-22T10:47:32.557Z,11.00
2023-03-22T10:50:03.624Z,11.00
2023-03-22T10:52:30.909Z,11.00
2023-03-22T10:55:03.044Z,10.90
2023-03-22T10:57:31.270Z,11.00
2023-03-22T10:59:58.835Z,10.90
2023-03-22T11:02:32.057Z,10.90
2023-03-22T11:05:07.215Z,10.90
2023-03-22T11:07:44.077Z,10.90
2023-03-22T11:10:10.967Z,10.90
2023-03-22T11:13:05.295Z,10.90
2023-03-22T11:15:34.772Z,10.90
2023-03-22T11:18:13.024Z,11.00
2023-03-22T11:20:55.770Z,11.00
2023-03-22T11:23:24.291Z,11.00
2023-03-22T11:25:55.669Z,11.00
2023-03-22T11:28:34.791Z,11.00
2023-03-22T11:31:06.354Z,11.10
2023-03-22T11:33:34.522Z,11.10
2023-03-22T11:36:04.566Z,11.10
2023-03-22T11:38:38.227Z,11.10
2023-03-22T11:41:25.298Z,11.10
2023-03-22T11:43:55.934Z,11.10
2023-03-22T11:46:24.569Z,11.10
2023-03-22T11:48:59.654Z,11.10
2023-03-22T11:51:40.867Z,11.20
2023-03-22T11:54:29.154Z,11.20
2023-03-22T11:57:00.015Z,11.20
2023-03-22T11:59:30.441Z,11.20
2023-03-22T12:02:00.655Z,11.20
2023-03-22T12:04:31.753Z,11.20
2023-03-22T12:07:03.444Z,11.20
2023-03-22T12:09:40.092Z,11.20
2023-03-22T12:12:16.713Z,11.20
2023-03-22T12:15:12.639Z,11.20
2023-03-22T12:17:49.217Z,11.20
2023-03-22T12:20:28.258Z,11.20
2023-03-22T12:22:56.767Z,11.20
2023-03-22T12:25:30.565Z,11.20
2023-03-22T12:28:07.622Z,11.20
2023-03-22T12:30:48.243Z,11.20
2023-03-22T12:33:28.326Z,11.20
2023-03-22T12:36:02.254Z,11.20
2023-03-22T12:38:46.223Z,11.30
2023-03-22T12:41:16.627Z,11.30
2023-03-22T12:43:58.900Z,11.30
2023-03-22T12:46:36.200Z,11.30
2023-03-22T12:49:05.632Z,11.20
2023-03-22T12:51:32.694Z,11.20
2023-03-22T12:54:01.847Z,11.10
2023-03-22T12:56:38.478Z,11.00
2023-03-22T12:59:12.398Z,11.00
2023-03-22T13:01:52.668Z,10.90
2023-03-22T13:04:25.845Z,10.90
2023-03-22T13:06:53.576Z,10.90
2023-03-22T13:09:40.610Z,10.80
2023-03-22T13:12:16.588Z,10.90
2023-03-22T13:14:52.663Z,10.90
2023-03-22T13:17:22.752Z,10.80
2023-03-22T13:19:59.745Z,10.90
2023-03-22T13:22:43.098Z,10.80
2023-03-22T13:25:27.494Z,10.80
2023-03-22T13:27:57.523Z,10.80
2023-03-22T13:30:32.397Z,10.80
2023-03-22T13:33:14.070Z,10.80
2023-03-22T13:35:51.368Z,10.80
2023-03-22T13:38:21.917Z,10.70
2023-03-22T13:41:13.768Z,10.70
2023-03-22T13:43:43.507Z,10.80
2023-03-22T13:46:22.455Z,10.80
2023-03-22T13:48:52.739Z,10.80
2023-03-22T13:51:23.007Z,10.70
2023-03-22T13:54:16.564Z,10.70
2023-03-22T13:56:53.366Z,10.70
2023-03-22T13:59:29.791Z,10.70
2023-03-22T14:02:16.306Z,10.70
2023-03-22T14:04:46.283Z,10.70
2023-03-22T14:07:31.692Z,10.70
2023-03-22T14:10:43.741Z,10.70
2023-03-22T14:13:31.607Z,10.70
2023-03-22T14:16:18.670Z,10.70
2023-03-22T14:18:48.887Z,10.70
2023-03-22T14:21:25.986Z,10.60
